Terminal Aerodrome Forecast
Issued by NWS Sterling, VA

Current Version | Previous Version | Text Only | Print | Product List | Glossary Off
Versions: 1 2 3 4 5 6 7 8 9 10 11 12 13 14 15 16 17 18 19 20 21 22

000
FTUS41 KLWX 271700
TAFDCA
TAF
KDCA 271730Z 2718/2818 33016G22KT P6SM SCT025 OVC040
     FM280100 32013G22KT P6SM BKN040
     FM280300 33012G20KT P6SM SCT200=

USA.gov is the U.S. government's official web portal to all federal, state and local government web resources and services.